createdAt,value
2023-05-05T00:01:20.426Z,11.90
2023-05-05T00:03:47.393Z,11.76
2023-05-05T00:06:14.746Z,11.82
2023-05-05T00:08:41.874Z,11.73
2023-05-05T00:11:08.445Z,11.71
2023-05-05T00:13:35.064Z,11.82
2023-05-05T00:16:01.752Z,11.50
2023-05-05T00:18:29.524Z,11.89
2023-05-05T00:20:56.005Z,11.81
2023-05-05T00:23:22.521Z,11.99
2023-05-05T00:25:49.057Z,11.79
2023-05-05T00:28:15.769Z,11.60
2023-05-05T00:30:42.811Z,11.65
2023-05-05T00:33:09.439Z,11.60
2023-05-05T00:35:35.920Z,11.50
2023-05-05T00:38:02.960Z,11.85
2023-05-05T00:40:29.553Z,11.95
2023-05-05T00:42:55.995Z,11.76
2023-05-05T00:45:22.568Z,11.67
2023-05-05T00:47:55.457Z,11.39
2023-05-05T00:50:25.704Z,11.37
2023-05-05T00:53:00.297Z,11.40
2023-05-05T00:55:29.593Z,11.47
2023-05-05T00:57:58.351Z,11.22
2023-05-05T01:00:26.416Z,11.24
2023-05-05T01:02:53.305Z,11.23
2023-05-05T01:05:23.476Z,11.01
2023-05-05T01:07:54.377Z,11.17
2023-05-05T01:10:53.074Z,10.67
2023-05-05T01:13:52.490Z,11.16
2023-05-05T01:16:26.854Z,10.97
2023-05-05T01:19:24.915Z,11.16
2023-05-05T01:22:00.673Z,11.24
2023-05-05T01:25:08.738Z,11.15
2023-05-05T01:27:38.302Z,10.85
2023-05-05T01:31:04.572Z,10.72
2023-05-05T01:33:44.054Z,10.69
2023-05-05T01:36:22.773Z,10.84
2023-05-05T01:38:58.047Z,10.64
2023-05-05T01:41:37.789Z,10.84
2023-05-05T01:44:10.502Z,11.06
2023-05-05T01:46:37.876Z,10.97
2023-05-05T01:49:09.978Z,10.74
2023-05-05T01:51:39.045Z,10.95
2023-05-05T01:54:08.356Z,10.88
2023-05-05T01:56:40.620Z,10.84
2023-05-05T01:59:09.937Z,11.16
2023-05-05T02:01:41.668Z,10.72
2023-05-05T02:04:10.063Z,10.61
2023-05-05T02:06:40.896Z,10.86
2023-05-05T02:09:13.751Z,10.95
2023-05-05T02:11:41.509Z,10.69
2023-05-05T02:14:11.140Z,10.87
2023-05-05T02:16:41.258Z,10.70
2023-05-05T02:19:12.137Z,10.86
2023-05-05T02:21:39.196Z,10.49
2023-05-05T02:24:07.331Z,10.71
2023-05-05T02:26:40.135Z,10.60
2023-05-05T02:29:17.325Z,10.54
2023-05-05T02:31:50.848Z,10.55
2023-05-05T02:34:27.015Z,10.34
2023-05-05T02:37:03.308Z,10.27
2023-05-05T02:39:38.562Z,10.51
2023-05-05T02:42:09.069Z,10.42
2023-05-05T02:44:42.461Z,10.33
2023-05-05T02:47:09.431Z,10.45
2023-05-05T02:49:36.726Z,10.31
2023-05-05T02:52:03.423Z,10.26
2023-05-05T02:54:32.706Z,10.13
2023-05-05T02:57:00.717Z,10.26
2023-05-05T02:59:48.646Z,10.31
2023-05-05T03:02:45.131Z,10.52
2023-05-05T03:05:40.642Z,10.30
2023-05-05T03:08:18.448Z,10.24
2023-05-05T03:11:01.496Z,10.19
2023-05-05T03:13:29.898Z,9.98
2023-05-05T03:16:00.091Z,10.05
2023-05-05T03:18:31.342Z,10.27
2023-05-05T03:21:07.808Z,10.34
2023-05-05T03:23:43.727Z,10.26
2023-05-05T03:26:10.759Z,10.27
2023-05-05T03:28:37.533Z,10.35
2023-05-05T03:31:04.904Z,10.31
2023-05-05T03:33:31.512Z,10.29
2023-05-05T03:35:58.030Z,10.39
2023-05-05T03:38:24.543Z,10.31
2023-05-05T03:40:51.085Z,10.12
2023-05-05T03:43:17.675Z,10.45
2023-05-05T03:45:44.134Z,10.43
2023-05-05T03:48:10.762Z,10.27
2023-05-05T03:50:37.644Z,10.29
2023-05-05T03:53:04.112Z,10.33
2023-05-05T03:55:33.556Z,10.05
2023-05-05T03:58:00.157Z,10.23
2023-05-05T04:00:27.462Z,10.34
2023-05-05T04:02:54.006Z,10.19
2023-05-05T04:05:22.491Z,10.08
2023-05-05T04:07:52.294Z,9.91
2023-05-05T04:10:18.929Z,9.97
2023-05-05T04:12:46.239Z,10.25
2023-05-05T04:15:12.732Z,9.89
2023-05-05T04:17:39.565Z,10.24
2023-05-05T04:20:07.559Z,10.06
2023-05-05T04:22:34.203Z,10.19
2023-05-05T04:25:01.167Z,10.22
2023-05-05T04:27:29.854Z,10.08
2023-05-05T04:29:57.556Z,10.29
2023-05-05T04:32:24.479Z,10.24
2023-05-05T04:34:51.053Z,10.20
2023-05-05T04:37:17.570Z,9.79
2023-05-05T04:39:44.337Z,10.27
2023-05-05T04:42:11.191Z,10.43
2023-05-05T04:44:37.940Z,10.27
2023-05-05T04:47:04.439Z,10.74
2023-05-05T04:49:31.871Z,10.41
2023-05-05T04:51:59.132Z,10.45
2023-05-05T04:54:25.780Z,10.20
2023-05-05T04:56:52.636Z,10.35
2023-05-05T04:59:19.168Z,10.51
2023-05-05T05:01:46.112Z,10.70
2023-05-05T05:04:13.691Z,10.94
2023-05-05T05:06:40.604Z,10.95
2023-05-05T05:09:07.096Z,10.98
2023-05-05T05:11:35.888Z,11.02
2023-05-05T05:14:02.581Z,11.24
2023-05-05T05:16:29.287Z,11.43
2023-05-05T05:18:55.726Z,11.14
2023-05-05T05:21:22.207Z,10.99
2023-05-05T05:23:48.660Z,11.33
2023-05-05T05:26:15.191Z,11.23
2023-05-05T05:28:42.003Z,11.58
2023-05-05T05:31:12.610Z,11.51
2023-05-05T05:33:39.523Z,12.07
2023-05-05T05:36:06.096Z,11.90
2023-05-05T05:38:33.260Z,12.23
2023-05-05T05:40:59.730Z,12.24
2023-05-05T05:43:26.163Z,12.44
2023-05-05T05:45:52.670Z,12.67
2023-05-05T05:48:19.181Z,12.76
2023-05-05T05:50:45.601Z,12.98
2023-05-05T05:53:12.005Z,13.02
2023-05-05T05:55:38.839Z,13.04
2023-05-05T05:58:05.345Z,13.05
2023-05-05T06:00:31.844Z,12.90
2023-05-05T06:02:58.607Z,13.67
2023-05-05T06:05:25.212Z,13.81
2023-05-05T06:07:51.650Z,14.21
2023-05-05T06:10:29.827Z,14.37
2023-05-05T06:12:56.597Z,14.05
2023-05-05T06:15:23.472Z,14.39
2023-05-05T06:17:49.958Z,14.40
2023-05-05T06:20:16.654Z,14.35
2023-05-05T06:22:43.118Z,14.74
2023-05-05T06:25:09.795Z,14.27
2023-05-05T06:27:37.694Z,15.00
2023-05-05T06:30:09.692Z,14.98
2023-05-05T06:32:36.355Z,15.27
2023-05-05T06:35:03.190Z,15.55
2023-05-05T06:37:30.749Z,15.28
2023-05-05T06:39:57.234Z,15.80
2023-05-05T06:42:23.788Z,16.35
2023-05-05T06:44:50.347Z,16.58
2023-05-05T06:47:17.661Z,16.48
2023-05-05T06:49:44.300Z,16.82
2023-05-05T06:52:11.366Z,16.18
2023-05-05T06:54:44.749Z,16.46
2023-05-05T06:57:11.186Z,16.91
2023-05-05T06:59:38.321Z,17.11
2023-05-05T07:02:05.599Z,17.46
2023-05-05T07:04:32.068Z,18.02
2023-05-05T07:06:58.535Z,17.99
2023-05-05T07:09:25.153Z,18.43
2023-05-05T07:11:52.223Z,18.14
2023-05-05T07:14:18.752Z,18.18
2023-05-05T07:16:48.401Z,18.80
2023-05-05T07:19:16.802Z,19.32
2023-05-05T07:21:43.361Z,19.25
2023-05-05T07:24:10.547Z,19.32
2023-05-05T07:26:37.324Z,20.13
2023-05-05T07:29:05.633Z,20.52
2023-05-05T07:31:32.183Z,20.74
2023-05-05T07:33:59.554Z,20.61
2023-05-05T07:36:28.011Z,20.89
2023-05-05T07:38:54.850Z,21.15
2023-05-05T07:41:21.498Z,21.63
2023-05-05T07:43:59.565Z,21.06
2023-05-05T07:46:26.947Z,21.11
2023-05-05T07:48:53.391Z,21.71
2023-05-05T07:51:21.423Z,21.70
2023-05-05T07:53:47.882Z,21.41
2023-05-05T07:56:14.532Z,22.04
2023-05-05T07:58:42.204Z,22.38
2023-05-05T08:01:10.912Z,22.44
2023-05-05T08:03:37.953Z,22.11
2023-05-05T08:06:09.882Z,22.21
2023-05-05T08:08:38.171Z,22.52
2023-05-05T08:11:06.543Z,22.56
2023-05-05T08:13:34.478Z,21.96
2023-05-05T08:16:01.053Z,22.57
2023-05-05T08:18:27.837Z,22.30
2023-05-05T08:20:54.702Z,22.05
2023-05-05T08:23:22.349Z,22.35
2023-05-05T08:25:49.811Z,22.80
2023-05-05T08:28:18.920Z,22.53
2023-05-05T08:30:47.104Z,23.57
2023-05-05T08:33:13.552Z,23.32
2023-05-05T08:35:44.923Z,23.26
2023-05-05T08:38:12.542Z,23.77
2023-05-05T08:40:48.318Z,23.72
2023-05-05T08:43:25.516Z,23.84
2023-05-05T08:45:53.042Z,24.64
2023-05-05T08:48:20.923Z,24.78
2023-05-05T08:50:56.717Z,24.61
2023-05-05T08:53:51.243Z,24.09
2023-05-05T08:56:21.887Z,24.88
2023-05-05T08:58:51.139Z,24.29
2023-05-05T09:01:18.553Z,24.32
2023-05-05T09:03:46.259Z,25.09
2023-05-05T09:06:13.538Z,24.37
2023-05-05T09:08:41.112Z,24.97
2023-05-05T09:11:08.116Z,25.31
2023-05-05T09:13:34.697Z,25.45
2023-05-05T09:16:01.481Z,25.80
2023-05-05T09:18:30.278Z,25.51
2023-05-05T09:20:59.560Z,25.33
2023-05-05T09:23:27.558Z,24.70
2023-05-05T09:26:08.083Z,26.01
2023-05-05T09:28:34.686Z,26.22
2023-05-05T09:31:19.845Z,26.45
2023-05-05T09:33:51.334Z,26.13
2023-05-05T09:36:17.807Z,25.64
2023-05-05T09:39:06.018Z,25.32
2023-05-05T09:41:47.607Z,24.83
2023-05-05T09:44:17.509Z,25.16
2023-05-05T09:46:52.923Z,25.09
2023-05-05T09:49:25.713Z,25.46
2023-05-05T09:51:54.510Z,25.77
2023-05-05T09:54:26.515Z,24.93
2023-05-05T09:56:55.400Z,25.79
2023-05-05T09:59:23.562Z,25.76
2023-05-05T10:01:51.164Z,25.28
2023-05-05T10:04:33.483Z,26.05
2023-05-05T10:07:01.572Z,26.10
2023-05-05T10:09:28.133Z,26.11
2023-05-05T10:11:59.034Z,26.30
2023-05-05T10:14:27.805Z,26.54
2023-05-05T10:16:59.513Z,26.48
2023-05-05T10:19:35.780Z,26.38
2023-05-05T10:22:08.390Z,26.26
2023-05-05T10:24:45.326Z,25.96
2023-05-05T10:27:20.424Z,25.20
2023-05-05T10:29:51.077Z,26.27
2023-05-05T10:35:06.175Z,25.56
2023-05-05T10:37:39.458Z,25.17
2023-05-05T10:40:09.470Z,24.42
2023-05-05T10:42:40.197Z,24.84
2023-05-05T10:45:09.560Z,25.03
2023-05-05T10:47:40.099Z,24.53
2023-05-05T10:50:30.483Z,24.82
2023-05-05T10:53:24.552Z,25.09
2023-05-05T10:56:27.257Z,25.03
2023-05-05T10:59:00.117Z,24.83
2023-05-05T11:01:34.927Z,25.56
2023-05-05T11:04:34.532Z,24.99
2023-05-05T11:07:10.299Z,26.13
2023-05-05T11:09:56.714Z,25.59
2023-05-05T11:12:23.800Z,25.29
2023-05-05T11:15:26.045Z,24.82
2023-05-05T11:17:55.107Z,25.59
2023-05-05T11:20:43.400Z,25.58
2023-05-05T11:23:09.837Z,25.25
2023-05-05T11:25:38.954Z,25.61
2023-05-05T11:28:12.291Z,25.28
2023-05-05T11:30:55.730Z,25.40
2023-05-05T11:33:32.291Z,25.76
2023-05-05T11:36:05.018Z,25.63
2023-05-05T11:38:37.229Z,25.71
2023-05-05T11:41:13.371Z,26.17
2023-05-05T11:43:46.742Z,24.96
2023-05-05T11:46:22.374Z,25.59
2023-05-05T11:48:52.910Z,25.77
2023-05-05T11:51:28.302Z,25.76
2023-05-05T11:53:58.390Z,26.08
2023-05-05T11:56:25.803Z,26.02
2023-05-05T11:59:10.474Z,26.24
2023-05-05T12:01:42.202Z,26.98
2023-05-05T12:04:13.548Z,26.85
2023-05-05T12:06:41.265Z,26.34
2023-05-05T12:09:25.304Z,25.74
2023-05-05T12:11:56.278Z,26.06
2023-05-05T12:14:25.707Z,26.17
2023-05-05T12:17:07.959Z,25.78
2023-05-05T12:19:38.586Z,25.60
2023-05-05T12:22:05.329Z,25.29
2023-05-05T12:24:33.322Z,26.04
2023-05-05T12:27:12.072Z,25.71
2023-05-05T12:29:40.546Z,25.77
2023-05-05T12:32:07.183Z,26.34
2023-05-05T12:34:34.288Z,27.11
2023-05-05T12:37:02.203Z,26.49
2023-05-05T12:39:36.592Z,26.04
2023-05-05T12:42:04.958Z,25.86
2023-05-05T12:44:36.687Z,25.13
2023-05-05T12:47:04.534Z,24.89
2023-05-05T12:49:34.149Z,25.49
2023-05-05T12:52:01.520Z,25.83
2023-05-05T12:54:30.210Z,25.96
2023-05-05T12:56:58.675Z,25.40
2023-05-05T12:59:25.117Z,26.33
2023-05-05T13:01:54.205Z,26.24
2023-05-05T13:04:24.140Z,25.87
2023-05-05T13:07:12.196Z,25.73
2023-05-05T13:09:42.680Z,25.46
2023-05-05T13:12:12.268Z,25.00
2023-05-05T13:14:40.582Z,24.52
2023-05-05T13:17:07.499Z,24.70
2023-05-05T13:19:41.546Z,24.79
2023-05-05T13:22:11.561Z,25.04
2023-05-05T13:24:50.943Z,25.11
2023-05-05T13:27:21.210Z,25.41
2023-05-05T13:29:48.030Z,25.21
2023-05-05T13:32:14.592Z,25.15
2023-05-05T13:34:42.410Z,24.88
2023-05-05T13:37:09.021Z,24.65
2023-05-05T13:39:37.111Z,24.73
2023-05-05T13:42:03.807Z,24.38
2023-05-05T13:44:33.658Z,24.35
2023-05-05T13:47:00.353Z,24.37
2023-05-05T13:49:26.948Z,24.56
2023-05-05T13:51:53.599Z,24.41
2023-05-05T13:54:20.112Z,24.19
2023-05-05T13:56:47.221Z,23.48
2023-05-05T13:59:13.875Z,23.24
2023-05-05T14:01:43.492Z,22.33
2023-05-05T14:04:11.186Z,22.28
2023-05-05T14:06:37.749Z,21.74
2023-05-05T14:09:07.434Z,21.28
2023-05-05T14:11:35.099Z,21.36
2023-05-05T14:14:01.691Z,21.26
2023-05-05T14:16:28.355Z,20.87
2023-05-05T14:18:54.972Z,20.47
2023-05-05T14:21:22.042Z,20.56
2023-05-05T14:23:48.530Z,20.05
2023-05-05T14:26:18.483Z,20.31
2023-05-05T14:28:46.733Z,20.46
2023-05-05T14:31:14.923Z,20.24
2023-05-05T14:33:41.427Z,20.39
2023-05-05T14:36:09.395Z,20.02
2023-05-05T14:38:35.958Z,20.46
2023-05-05T14:41:02.493Z,20.30
2023-05-05T14:43:29.197Z,20.29
2023-05-05T14:45:58.141Z,20.01
2023-05-05T14:48:24.745Z,19.75
2023-05-05T14:50:51.245Z,20.12
2023-05-05T14:53:19.097Z,20.27
2023-05-05T14:55:45.736Z,20.30
2023-05-05T14:58:12.397Z,20.33
2023-05-05T15:00:40.206Z,20.40
2023-05-05T15:03:08.492Z,20.56
2023-05-05T15:05:35.792Z,20.60
2023-05-05T15:08:02.276Z,20.58
2023-05-05T15:10:28.951Z,20.50
2023-05-05T15:12:55.490Z,20.56
2023-05-05T15:15:22.030Z,20.41
2023-05-05T15:17:48.560Z,20.57
2023-05-05T15:20:15.148Z,20.64
2023-05-05T15:22:41.673Z,20.52
2023-05-05T15:25:12.420Z,20.52
2023-05-05T15:27:40.541Z,20.75
2023-05-05T15:30:08.443Z,20.24
2023-05-05T15:32:35.206Z,20.30
2023-05-05T15:35:01.884Z,20.39
2023-05-05T15:37:30.444Z,20.49
2023-05-05T15:40:00.084Z,20.66
2023-05-05T15:42:27.886Z,20.80
2023-05-05T15:44:55.611Z,20.49
2023-05-05T15:47:22.712Z,20.46
2023-05-05T15:49:49.283Z,20.25
2023-05-05T15:52:15.902Z,20.52
2023-05-05T15:54:43.484Z,20.37
2023-05-05T15:57:10.264Z,20.71
2023-05-05T15:59:44.602Z,20.83
2023-05-05T16:02:11.555Z,20.80
2023-05-05T16:04:38.149Z,20.66
2023-05-05T16:07:04.578Z,20.58
2023-05-05T16:09:31.518Z,20.59
2023-05-05T16:12:00.947Z,20.38
2023-05-05T16:14:28.436Z,20.31
2023-05-05T16:16:55.564Z,20.40
2023-05-05T16:19:23.341Z,20.61
2023-05-05T16:21:50.228Z,20.83
2023-05-05T16:24:17.230Z,20.65
2023-05-05T16:26:45.982Z,20.35
2023-05-05T16:29:12.704Z,20.23
2023-05-05T16:31:40.257Z,19.94
2023-05-05T16:34:07.059Z,19.87
2023-05-05T16:36:36.247Z,19.90
2023-05-05T16:39:03.530Z,19.93
2023-05-05T16:41:30.114Z,19.92
2023-05-05T16:43:56.689Z,20.09
2023-05-05T16:46:23.355Z,20.04
2023-05-05T16:48:50.929Z,19.98
2023-05-05T16:51:18.075Z,20.24
2023-05-05T16:53:44.516Z,20.46
2023-05-05T16:56:12.919Z,20.27
2023-05-05T16:58:40.531Z,20.17
2023-05-05T17:01:07.130Z,20.15
2023-05-05T17:03:33.660Z,20.23
2023-05-05T17:06:00.484Z,20.20
2023-05-05T17:08:27.257Z,20.10
2023-05-05T17:10:53.804Z,20.12
2023-05-05T17:13:20.343Z,20.31
2023-05-05T17:15:47.214Z,20.37
2023-05-05T17:18:13.798Z,20.17
2023-05-05T17:20:40.334Z,20.09
2023-05-05T17:23:08.754Z,20.09
2023-05-05T17:25:35.897Z,20.13
2023-05-05T17:28:03.815Z,20.10
2023-05-05T17:30:30.376Z,20.21
2023-05-05T17:32:56.885Z,19.97
2023-05-05T17:35:24.258Z,19.74
2023-05-05T17:37:51.721Z,19.76
2023-05-05T17:40:18.297Z,19.48
2023-05-05T17:42:48.182Z,19.69
2023-05-05T17:45:14.622Z,19.70
2023-05-05T17:47:41.315Z,19.46
2023-05-05T17:50:10.562Z,19.06
2023-05-05T17:52:37.293Z,19.21
2023-05-05T17:55:04.123Z,18.96
2023-05-05T17:57:33.029Z,19.08
2023-05-05T18:00:06.350Z,18.70
2023-05-05T18:02:36.810Z,18.78
2023-05-05T18:05:05.172Z,18.90
2023-05-05T18:07:33.572Z,18.99
2023-05-05T18:10:00.648Z,18.84
2023-05-05T18:12:27.405Z,18.74
2023-05-05T18:14:53.850Z,18.58
2023-05-05T18:17:21.058Z,18.64
2023-05-05T18:19:49.096Z,18.51
2023-05-05T18:22:15.906Z,18.45
2023-05-05T18:24:43.112Z,18.08
2023-05-05T18:27:10.091Z,18.09
2023-05-05T18:29:36.951Z,18.22
2023-05-05T18:32:06.374Z,18.10
2023-05-05T18:34:33.911Z,17.95
2023-05-05T18:37:00.567Z,18.02
2023-05-05T18:39:27.302Z,17.94
2023-05-05T18:41:53.740Z,17.75
2023-05-05T18:44:20.347Z,17.38
2023-05-05T18:46:48.337Z,17.44
2023-05-05T18:49:16.749Z,17.60
2023-05-05T18:51:43.960Z,17.49
2023-05-05T18:54:10.636Z,17.25
2023-05-05T18:56:37.356Z,17.24
2023-05-05T18:59:04.780Z,17.08
2023-05-05T19:01:31.317Z,17.02
2023-05-05T19:03:57.880Z,17.09
2023-05-05T19:06:24.376Z,16.92
2023-05-05T19:08:51.010Z,16.84
2023-05-05T19:11:18.052Z,16.86
2023-05-05T19:13:45.799Z,16.80
2023-05-05T19:16:12.834Z,16.76
2023-05-05T19:18:41.119Z,16.97
2023-05-05T19:21:09.541Z,16.95
2023-05-05T19:23:38.037Z,17.03
2023-05-05T19:26:06.687Z,16.73
2023-05-05T19:28:36.155Z,16.63
2023-05-05T19:31:02.696Z,16.74
2023-05-05T19:33:29.336Z,16.86
2023-05-05T19:35:56.545Z,16.92
2023-05-05T19:38:23.138Z,16.88
2023-05-05T19:40:50.174Z,16.67
2023-05-05T19:43:16.650Z,16.69
2023-05-05T19:45:43.290Z,16.55
2023-05-05T19:48:09.867Z,16.70
2023-05-05T19:50:36.756Z,16.39
2023-05-05T19:53:03.936Z,16.04
2023-05-05T19:55:30.573Z,16.23
2023-05-05T19:57:56.961Z,16.17
2023-05-05T20:00:23.496Z,16.09
2023-05-05T20:02:50.048Z,16.00
2023-05-05T20:05:17.303Z,15.81
2023-05-05T20:07:46.184Z,15.64
2023-05-05T20:10:13.829Z,15.78
2023-05-05T20:12:47.519Z,15.77
2023-05-05T20:15:19.249Z,15.74
2023-05-05T20:17:47.771Z,15.47
2023-05-05T20:20:20.413Z,15.61
2023-05-05T20:22:48.870Z,15.62
2023-05-05T20:25:16.208Z,15.20
2023-05-05T20:27:45.266Z,15.35
2023-05-05T20:30:12.996Z,15.25
2023-05-05T20:32:39.640Z,15.29
2023-05-05T20:35:07.208Z,15.25
2023-05-05T20:37:33.708Z,15.17
2023-05-05T20:40:00.327Z,15.00
2023-05-05T20:42:27.605Z,14.82
2023-05-05T20:44:54.138Z,14.94
2023-05-05T20:47:20.691Z,14.68
2023-05-05T20:49:47.375Z,14.72
2023-05-05T20:52:13.865Z,14.70
2023-05-05T20:54:40.442Z,14.88
2023-05-05T20:57:07.879Z,14.86
2023-05-05T20:59:34.465Z,14.56
2023-05-05T21:02:01.001Z,14.62
2023-05-05T21:04:27.534Z,14.45
2023-05-05T21:06:54.076Z,14.51
2023-05-05T21:09:21.921Z,14.20
2023-05-05T21:11:48.770Z,14.35
2023-05-05T21:14:15.469Z,14.35
2023-05-05T21:16:42.611Z,14.26
2023-05-05T21:19:09.208Z,14.32
2023-05-05T21:21:35.832Z,14.32
2023-05-05T21:24:02.976Z,14.52
2023-05-05T21:26:30.380Z,14.43
2023-05-05T21:28:56.951Z,14.51
2023-05-05T21:31:23.609Z,14.58
2023-05-05T21:33:50.267Z,14.60
2023-05-05T21:36:18.882Z,14.50
2023-05-05T21:38:45.813Z,14.35
2023-05-05T21:41:12.683Z,14.35
2023-05-05T21:43:39.179Z,14.22
2023-05-05T21:46:05.810Z,14.23
2023-05-05T21:48:32.628Z,14.42
2023-05-05T21:50:59.575Z,14.34
2023-05-05T21:53:26.282Z,14.34
2023-05-05T21:55:52.816Z,14.17
2023-05-05T21:58:19.436Z,14.12
2023-05-05T22:00:49.695Z,14.12
2023-05-05T22:03:16.690Z,14.17
2023-05-05T22:05:43.193Z,13.82
2023-05-05T22:08:09.820Z,14.06
2023-05-05T22:10:36.467Z,13.96
2023-05-05T22:13:02.972Z,14.03
2023-05-05T22:15:35.713Z,13.80
2023-05-05T22:18:09.627Z,13.37
2023-05-05T22:20:38.649Z,13.44
2023-05-05T22:23:05.203Z,13.43
2023-05-05T22:25:31.658Z,13.30
2023-05-05T22:27:58.049Z,13.49
2023-05-05T22:30:24.507Z,13.36
2023-05-05T22:32:50.962Z,13.26
2023-05-05T22:35:17.871Z,13.28
2023-05-05T22:37:44.324Z,13.33
2023-05-05T22:40:12.830Z,13.28
2023-05-05T22:42:39.528Z,13.30
2023-05-05T22:45:07.093Z,13.30
2023-05-05T22:47:33.761Z,13.11
2023-05-05T22:50:00.420Z,13.04
2023-05-05T22:52:28.818Z,13.12
2023-05-05T22:54:55.986Z,13.29
2023-05-05T22:57:22.725Z,13.12
2023-05-05T22:59:50.248Z,13.13
2023-05-05T23:02:16.895Z,12.96
2023-05-05T23:04:44.984Z,12.98
2023-05-05T23:07:12.893Z,13.03
2023-05-05T23:09:41.153Z,13.05
2023-05-05T23:12:07.996Z,12.86
2023-05-05T23:14:35.965Z,12.79
2023-05-05T23:17:04.199Z,13.04
2023-05-05T23:19:32.693Z,13.07
2023-05-05T23:22:02.089Z,12.98
2023-05-05T23:24:37.027Z,13.01
2023-05-05T23:27:03.808Z,12.89
2023-05-05T23:29:30.937Z,12.95
2023-05-05T23:31:58.118Z,13.06
2023-05-05T23:34:25.853Z,13.09
2023-05-05T23:36:52.365Z,12.78
2023-05-05T23:39:19.109Z,12.68
2023-05-05T23:41:45.546Z,13.04
2023-05-05T23:44:13.085Z,12.71
2023-05-05T23:46:39.700Z,12.82
2023-05-05T23:49:06.244Z,12.68
2023-05-05T23:51:33.081Z,12.60
2023-05-05T23:53:59.666Z,12.40
2023-05-05T23:56:26.310Z,12.79
2023-05-05T23:58:53.706Z,12.71
